Pagina principale
METAR-TAF:

METAR-TAF

Aeroporti :

Alexander City, Alabama, Stati Uniti

latitudine: 32-54-53N, longitudine: 085-57-46W, altezza: 209 m

Osservazione

Il bollettino è stato emesso 20 minuti fa, alle 14:35 UTC
Vento 8 kt da nord
Temperature 9°C
Umidità 81%
Pressione 1023 hPa
Visibilità: 16.1 km
Nuvoloso ad un'altezza di 1500 ft
Nuvoloso ad un'altezza di 2000 ft
Nuvoloso ad un'altezza di 9000 ft

METAR: KALX 181435Z AUTO 01008KT 10SM BKN015 BKN020 BKN090 09/06 A3022 RMK AO2 T00880055

Ora: 08:55 (14:55 UTC)


TAF: mancante

Osservazioni e previsioni meteorologiche di più di 4000 aeroporti (messaggi METAR e TAF).

Le stazioni disponibili sono rappresentate dai dischi gialli e rossi sulla carta.

Puntare il mouse per vedere il nome della stazione.

Clicca sopra per visualizzare le osservazioni e previsioni meteorologiche.

Per cambiare la mappa : fare clic sui pulsanti verdi con una croce nera per ingrandire, il pulsante verde con un trattino per diminuire, o sulla freccia verde per le mappe adiacenti.


METAR-TAF: